sensor_id;sensor_type;location;lat;lon;timestamp;pressure;altitude;pressure_sealevel;temperature;humidity
2294;BME280;1155;42.644;23.264;2023-04-05T00:02:01;60214.28;;;-140.67;100.00
2294;BME280;1155;42.644;23.264;2023-04-05T00:04:29;60226.56;;;-140.67;100.00
2294;BME280;1155;42.644;23.264;2023-04-05T00:06:59;60220.41;;;-140.67;100.00
2294;BME280;1155;42.644;23.264;2023-04-05T00:09:28;60212.22;;;-140.67;100.00
2294;BME280;1155;42.644;23.264;2023-04-05T00:11:55;60210.19;;;-140.67;100.00
2294;BME280;1155;42.644;23.264;2023-04-05T00:14:22;60202.00;;;-140.67;100.00
2294;BME280;1155;42.644;23.264;2023-04-05T00:16:49;60226.56;;;-140.67;100.00
2294;BME280;1155;42.644;23.264;2023-04-05T00:19:16;60197.91;;;-140.67;100.00
2294;BME280;1155;42.644;23.264;2023-04-05T00:21:42;60204.03;;;-140.67;100.00
2294;BME280;1155;42.644;23.264;2023-04-05T00:24:09;60224.53;;;-140.67;100.00
2294;BME280;1155;42.644;23.264;2023-04-05T00:26:41;60226.56;;;-140.67;100.00
2294;BME280;1155;42.644;23.264;2023-04-05T00:29:09;60208.13;;;-140.67;100.00
2294;BME280;1155;42.644;23.264;2023-04-05T00:31:36;60222.47;;;-140.67;100.00
2294;BME280;1155;42.644;23.264;2023-04-05T00:34:03;60199.94;;;-140.67;100.00
2294;BME280;1155;42.644;23.264;2023-04-05T00:36:33;60199.94;;;-140.67;100.00
2294;BME280;1155;42.644;23.264;2023-04-05T00:39:01;60208.13;;;-140.67;100.00
2294;BME280;1155;42.644;23.264;2023-04-05T00:41:28;60189.72;;;-140.67;100.00
2294;BME280;1155;42.644;23.264;2023-04-05T00:43:56;60202.00;;;-140.67;100.00
2294;BME280;1155;42.644;23.264;2023-04-05T00:46:28;60238.84;;;-140.67;100.00
2294;BME280;1155;42.644;23.264;2023-04-05T00:48:55;60216.31;;;-140.67;100.00
2294;BME280;1155;42.644;23.264;2023-04-05T00:51:22;60199.94;;;-140.67;100.00
2294;BME280;1155;42.644;23.264;2023-04-05T00:53:50;60204.03;;;-140.67;100.00
2294;BME280;1155;42.644;23.264;2023-04-05T00:56:18;60204.03;;;-140.67;100.00
2294;BME280;1155;42.644;23.264;2023-04-05T00:58:47;60210.19;;;-140.67;100.00
2294;BME280;1155;42.644;23.264;2023-04-05T01:01:18;60214.28;;;-140.67;100.00
2294;BME280;1155;42.644;23.264;2023-04-05T01:03:50;60218.38;;;-140.67;100.00
2294;BME280;1155;42.644;23.264;2023-04-05T01:06:48;60224.53;;;-140.67;100.00
2294;BME280;1155;42.644;23.264;2023-04-05T01:09:27;60226.56;;;-140.67;100.00
2294;BME280;1155;42.644;23.264;2023-04-05T01:11:59;60212.22;;;-140.67;100.00
2294;BME280;1155;42.644;23.264;2023-04-05T01:14:26;60218.38;;;-140.67;100.00
2294;BME280;1155;42.644;23.264;2023-04-05T01:16:55;60210.19;;;-140.67;100.00
2294;BME280;1155;42.644;23.264;2023-04-05T01:19:26;60199.94;;;-140.67;100.00
2294;BME280;1155;42.644;23.264;2023-04-05T01:22:09;60199.94;;;-140.67;100.00
2294;BME280;1155;42.644;23.264;2023-04-05T01:24:57;60222.47;;;-140.67;100.00
2294;BME280;1155;42.644;23.264;2023-04-05T01:27:43;60212.22;;;-140.67;100.00
2294;BME280;1155;42.644;23.264;2023-04-05T01:30:17;60226.56;;;-140.67;100.00
2294;BME280;1155;42.644;23.264;2023-04-05T01:32:54;60218.38;;;-140.67;100.00
2294;BME280;1155;42.644;23.264;2023-04-05T01:35:36;60220.41;;;-140.67;100.00
2294;BME280;1155;42.644;23.264;2023-04-05T01:38:06;60204.03;;;-140.67;100.00
2294;BME280;1155;42.644;23.264;2023-04-05T01:40:36;60218.38;;;-140.67;100.00
2294;BME280;1155;42.644;23.264;2023-04-05T01:43:11;60218.38;;;-140.67;100.00
2294;BME280;1155;42.644;23.264;2023-04-05T01:45:40;60234.75;;;-140.67;100.00
2294;BME280;1155;42.644;23.264;2023-04-05T01:48:08;60204.03;;;-140.67;100.00
2294;BME280;1155;42.644;23.264;2023-04-05T01:50:35;60214.28;;;-140.67;100.00
2294;BME280;1155;42.644;23.264;2023-04-05T01:53:02;60199.94;;;-140.67;100.00
2294;BME280;1155;42.644;23.264;2023-04-05T01:55:32;60220.41;;;-140.67;100.00
2294;BME280;1155;42.644;23.264;2023-04-05T01:57:58;60228.63;;;-140.67;100.00
2294;BME280;1155;42.644;23.264;2023-04-05T02:00:25;60224.53;;;-140.67;100.00
2294;BME280;1155;42.644;23.264;2023-04-05T02:02:53;60216.31;;;-140.67;100.00
2294;BME280;1155;42.644;23.264;2023-04-05T02:05:20;60212.22;;;-140.67;100.00
2294;BME280;1155;42.644;23.264;2023-04-05T02:07:47;60228.63;;;-140.67;100.00
2294;BME280;1155;42.644;23.264;2023-04-05T02:10:14;60214.28;;;-140.67;100.00
2294;BME280;1155;42.644;23.264;2023-04-05T02:12:41;60206.09;;;-140.67;100.00
2294;BME280;1155;42.644;23.264;2023-04-05T02:15:09;60210.19;;;-140.67;100.00
2294;BME280;1155;42.644;23.264;2023-04-05T02:17:36;60214.28;;;-140.67;100.00
2294;BME280;1155;42.644;23.264;2023-04-05T02:20:07;60214.28;;;-140.67;100.00
2294;BME280;1155;42.644;23.264;2023-04-05T02:22:35;60202.00;;;-140.67;100.00
2294;BME280;1155;42.644;23.264;2023-04-05T02:25:02;60210.19;;;-140.67;100.00
2294;BME280;1155;42.644;23.264;2023-04-05T02:27:29;60210.19;;;-140.67;100.00
2294;BME280;1155;42.644;23.264;2023-04-05T02:29:56;60224.53;;;-140.67;100.00
2294;BME280;1155;42.644;23.264;2023-04-05T02:32:24;60232.72;;;-140.67;100.00
2294;BME280;1155;42.644;23.264;2023-04-05T02:34:51;60197.91;;;-140.67;100.00
2294;BME280;1155;42.644;23.264;2023-04-05T02:37:19;60202.00;;;-140.67;100.00
2294;BME280;1155;42.644;23.264;2023-04-05T02:39:47;60208.13;;;-140.67;100.00
2294;BME280;1155;42.644;23.264;2023-04-05T02:42:13;60204.03;;;-140.67;100.00
2294;BME280;1155;42.644;23.264;2023-04-05T02:44:40;60226.56;;;-140.67;100.00
2294;BME280;1155;42.644;23.264;2023-04-05T02:47:07;60218.38;;;-140.67;100.00
2294;BME280;1155;42.644;23.264;2023-04-05T02:49:34;60226.56;;;-140.67;100.00
2294;BME280;1155;42.644;23.264;2023-04-05T02:52:04;60220.41;;;-140.67;100.00
2294;BME280;1155;42.644;23.264;2023-04-05T02:54:32;60242.94;;;-140.67;100.00
2294;BME280;1155;42.644;23.264;2023-04-05T02:56:59;60245.00;;;-140.67;100.00
2294;BME280;1155;42.644;23.264;2023-04-05T02:59:26;60226.56;;;-140.67;100.00
2294;BME280;1155;42.644;23.264;2023-04-05T03:01:53;60236.81;;;-140.67;100.00
2294;BME280;1155;42.644;23.264;2023-04-05T03:04:20;60220.41;;;-140.67;100.00
2294;BME280;1155;42.644;23.264;2023-04-05T03:06:51;60212.22;;;-140.67;100.00
2294;BME280;1155;42.644;23.264;2023-04-05T03:09:19;60216.31;;;-140.67;100.00
2294;BME280;1155;42.644;23.264;2023-04-05T03:11:48;60236.81;;;-140.67;100.00
2294;BME280;1155;42.644;23.264;2023-04-05T03:14:15;60199.94;;;-140.67;100.00
2294;BME280;1155;42.644;23.264;2023-04-05T03:16:42;60220.41;;;-140.67;100.00
2294;BME280;1155;42.644;23.264;2023-04-05T03:19:09;60208.13;;;-140.67;100.00
2294;BME280;1155;42.644;23.264;2023-04-05T03:21:36;60214.28;;;-140.67;100.00
2294;BME280;1155;42.644;23.264;2023-04-05T03:24:06;60218.38;;;-140.67;100.00
2294;BME280;1155;42.644;23.264;2023-04-05T03:26:32;60240.91;;;-140.67;100.00
2294;BME280;1155;42.644;23.264;2023-04-05T03:29:01;60226.56;;;-140.67;100.00
2294;BME280;1155;42.644;23.264;2023-04-05T03:31:28;60204.03;;;-140.67;100.00
2294;BME280;1155;42.644;23.264;2023-04-05T03:33:55;60204.03;;;-140.67;100.00
2294;BME280;1155;42.644;23.264;2023-04-05T03:36:22;60208.13;;;-140.67;100.00
2294;BME280;1155;42.644;23.264;2023-04-05T03:38:48;60236.81;;;-140.67;100.00
2294;BME280;1155;42.644;23.264;2023-04-05T03:41:16;60228.63;;;-140.67;100.00
2294;BME280;1155;42.644;23.264;2023-04-05T03:43:45;60204.03;;;-140.67;100.00
2294;BME280;1155;42.644;23.264;2023-04-05T03:46:14;60202.00;;;-140.67;100.00
2294;BME280;1155;42.644;23.264;2023-04-05T03:48:41;60208.13;;;-140.67;100.00
2294;BME280;1155;42.644;23.264;2023-04-05T03:51:08;60242.94;;;-140.67;100.00
2294;BME280;1155;42.644;23.264;2023-04-05T03:53:35;60238.84;;;-140.67;100.00
2294;BME280;1155;42.644;23.264;2023-04-05T03:56:02;60220.41;;;-140.67;100.00
2294;BME280;1155;42.644;23.264;2023-04-05T03:58:29;60220.41;;;-140.67;100.00
2294;BME280;1155;42.644;23.264;2023-04-05T04:00:55;60195.84;;;-140.67;100.00
2294;BME280;1155;42.644;23.264;2023-04-05T04:03:24;60236.81;;;-140.67;100.00
2294;BME280;1155;42.644;23.264;2023-04-05T04:05:53;60210.19;;;-140.67;100.00
2294;BME280;1155;42.644;23.264;2023-04-05T04:08:20;60224.53;;;-140.67;100.00
2294;BME280;1155;42.644;23.264;2023-04-05T04:10:47;60242.94;;;-140.67;100.00
2294;BME280;1155;42.644;23.264;2023-04-05T04:13:14;60216.31;;;-140.67;100.00
2294;BME280;1155;42.644;23.264;2023-04-05T04:15:43;60214.28;;;-140.67;100.00
2294;BME280;1155;42.644;23.264;2023-04-05T04:18:11;60220.41;;;-140.67;100.00
2294;BME280;1155;42.644;23.264;2023-04-05T04:20:39;60224.53;;;-140.67;100.00
2294;BME280;1155;42.644;23.264;2023-04-05T04:23:06;60220.41;;;-140.67;100.00
2294;BME280;1155;42.644;23.264;2023-04-05T04:25:35;60247.03;;;-140.67;100.00
2294;BME280;1155;42.644;23.264;2023-04-05T04:28:02;60220.41;;;-140.67;100.00
2294;BME280;1155;42.644;23.264;2023-04-05T04:30:31;60222.47;;;-140.67;100.00
2294;BME280;1155;42.644;23.264;2023-04-05T04:32:59;60226.56;;;-140.67;100.00
2294;BME280;1155;42.644;23.264;2023-04-05T04:35:30;60218.38;;;-140.67;100.00
2294;BME280;1155;42.644;23.264;2023-04-05T04:38:02;60214.28;;;-140.67;100.00
2294;BME280;1155;42.644;23.264;2023-04-05T04:40:30;60212.22;;;-140.67;100.00
2294;BME280;1155;42.644;23.264;2023-04-05T04:43:03;60230.66;;;-140.67;100.00
2294;BME280;1155;42.644;23.264;2023-04-05T04:45:29;60232.72;;;-140.67;100.00
2294;BME280;1155;42.644;23.264;2023-04-05T04:47:59;60226.56;;;-140.67;100.00
2294;BME280;1155;42.644;23.264;2023-04-05T04:50:29;60175.38;;;-140.67;100.00
2294;BME280;1155;42.644;23.264;2023-04-05T04:52:57;60214.28;;;-140.67;100.00
2294;BME280;1155;42.644;23.264;2023-04-05T04:55:25;60224.53;;;-140.67;100.00
2294;BME280;1155;42.644;23.264;2023-04-05T04:57:53;60224.53;;;-140.67;100.00
2294;BME280;1155;42.644;23.264;2023-04-05T05:00:21;60191.75;;;-140.67;100.00
2294;BME280;1155;42.644;23.264;2023-04-05T05:02:49;60206.09;;;-140.67;100.00
2294;BME280;1155;42.644;23.264;2023-04-05T05:05:16;60226.56;;;-140.67;100.00
2294;BME280;1155;42.644;23.264;2023-04-05T05:07:47;60232.72;;;-140.67;100.00
2294;BME280;1155;42.644;23.264;2023-04-05T05:10:15;60216.31;;;-140.67;100.00
2294;BME280;1155;42.644;23.264;2023-04-05T05:12:44;60230.66;;;-140.67;100.00
2294;BME280;1155;42.644;23.264;2023-04-05T05:15:13;60212.22;;;-140.67;100.00
2294;BME280;1155;42.644;23.264;2023-04-05T05:17:39;60249.09;;;-140.67;100.00
2294;BME280;1155;42.644;23.264;2023-04-05T05:20:08;60216.31;;;-140.67;100.00
2294;BME280;1155;42.644;23.264;2023-04-05T05:22:35;60224.53;;;-140.67;100.00
2294;BME280;1155;42.644;23.264;2023-04-05T05:25:02;60232.72;;;-140.67;100.00
2294;BME280;1155;42.644;23.264;2023-04-05T05:27:29;60220.41;;;-140.67;100.00
2294;BME280;1155;42.644;23.264;2023-04-05T05:29:59;60208.13;;;-140.67;100.00
2294;BME280;1155;42.644;23.264;2023-04-05T05:32:26;60220.41;;;-140.67;100.00
2294;BME280;1155;42.644;23.264;2023-04-05T05:35:02;60208.13;;;-140.67;100.00
2294;BME280;1155;42.644;23.264;2023-04-05T05:37:30;60210.19;;;-140.67;100.00
2294;BME280;1155;42.644;23.264;2023-04-05T05:39:57;60212.22;;;-140.67;100.00
2294;BME280;1155;42.644;23.264;2023-04-05T05:42:24;60220.41;;;-140.67;100.00
2294;BME280;1155;42.644;23.264;2023-04-05T05:44:51;60191.75;;;-140.67;100.00
2294;BME280;1155;42.644;23.264;2023-04-05T05:47:20;60220.41;;;-140.67;100.00
2294;BME280;1155;42.644;23.264;2023-04-05T05:49:46;60218.38;;;-140.67;100.00
2294;BME280;1155;42.644;23.264;2023-04-05T05:52:14;60185.59;;;-140.67;100.00
2294;BME280;1155;42.644;23.264;2023-04-05T05:54:41;60214.28;;;-140.67;100.00
2294;BME280;1155;42.644;23.264;2023-04-05T05:57:08;60222.47;;;-140.67;100.00
2294;BME280;1155;42.644;23.264;2023-04-05T05:59:35;60210.19;;;-140.67;100.00
2294;BME280;1155;42.644;23.264;2023-04-05T06:02:03;60191.75;;;-140.67;100.00
2294;BME280;1155;42.644;23.264;2023-04-05T06:04:31;60216.31;;;-140.67;100.00
2294;BME280;1155;42.644;23.264;2023-04-05T06:06:58;60202.00;;;-140.67;100.00
2294;BME280;1155;42.644;23.264;2023-04-05T06:09:27;60181.50;;;-140.67;100.00
2294;BME280;1155;42.644;23.264;2023-04-05T06:11:54;60220.41;;;-140.67;100.00
2294;BME280;1155;42.644;23.264;2023-04-05T06:14:23;60202.00;;;-140.67;100.00
2294;BME280;1155;42.644;23.264;2023-04-05T06:16:50;60177.41;;;-140.67;100.00
2294;BME280;1155;42.644;23.264;2023-04-05T06:19:18;60183.56;;;-140.67;100.00
2294;BME280;1155;42.644;23.264;2023-04-05T06:21:46;60195.84;;;-140.67;100.00
2294;BME280;1155;42.644;23.264;2023-04-05T06:24:13;60208.13;;;-140.67;100.00
2294;BME280;1155;42.644;23.264;2023-04-05T06:26:40;60216.31;;;-140.67;100.00
2294;BME280;1155;42.644;23.264;2023-04-05T06:29:07;60212.22;;;-140.67;100.00
2294;BME280;1155;42.644;23.264;2023-04-05T06:31:34;60183.56;;;-140.67;100.00
2294;BME280;1155;42.644;23.264;2023-04-05T06:34:01;60212.22;;;-140.67;93.18
2294;BME280;1155;42.644;23.264;2023-04-05T06:36:29;60191.75;;;-140.67;98.52
2294;BME280;1155;42.644;23.264;2023-04-05T06:38:58;60179.47;;;-140.67;100.00
2294;BME280;1155;42.644;23.264;2023-04-05T06:41:25;60175.38;;;-140.67;87.87
2294;BME280;1155;42.644;23.264;2023-04-05T06:43:53;60204.03;;;-140.67;86.77
2294;BME280;1155;42.644;23.264;2023-04-05T06:46:20;60179.47;;;-140.67;81.55
2294;BME280;1155;42.644;23.264;2023-04-05T06:48:47;60187.66;;;-140.67;72.76
2294;BME280;1155;42.644;23.264;2023-04-05T06:51:14;60232.72;;;-140.67;78.81
2294;BME280;1155;42.644;23.264;2023-04-05T06:53:41;60171.28;;;-140.67;75.82
2294;BME280;1155;42.644;23.264;2023-04-05T06:56:09;60208.13;;;-140.67;66.54
2294;BME280;1155;42.644;23.264;2023-04-05T06:58:36;60191.75;;;-140.67;70.65
2294;BME280;1155;42.644;23.264;2023-04-05T07:01:04;60191.75;;;-140.67;71.84
2294;BME280;1155;42.644;23.264;2023-04-05T07:03:31;60179.47;;;-140.67;68.08
2294;BME280;1155;42.644;23.264;2023-04-05T07:05:59;60214.28;;;-140.67;68.04
2294;BME280;1155;42.644;23.264;2023-04-05T07:08:30;60212.22;;;-140.67;65.87
2294;BME280;1155;42.644;23.264;2023-04-05T07:10:58;60185.59;;;-140.67;73.25
2294;BME280;1155;42.644;23.264;2023-04-05T07:13:26;60195.84;;;-140.67;82.26
2294;BME280;1155;42.644;23.264;2023-04-05T07:15:59;60195.84;;;-140.67;79.36
2294;BME280;1155;42.644;23.264;2023-04-05T07:18:26;60187.66;;;-140.67;73.07
2294;BME280;1155;42.644;23.264;2023-04-05T07:20:55;60204.03;;;-140.67;81.52
2294;BME280;1155;42.644;23.264;2023-04-05T07:23:24;60208.13;;;-140.67;82.10
2294;BME280;1155;42.644;23.264;2023-04-05T07:25:52;60218.38;;;-140.67;84.50
2294;BME280;1155;42.644;23.264;2023-04-05T07:28:19;60191.75;;;-140.67;90.66
2294;BME280;1155;42.644;23.264;2023-04-05T07:30:51;60199.94;;;-140.67;84.52
2294;BME280;1155;42.644;23.264;2023-04-05T07:33:17;60187.66;;;-140.67;92.35
2294;BME280;1155;42.644;23.264;2023-04-05T07:35:50;60191.75;;;-140.67;88.39
2294;BME280;1155;42.644;23.264;2023-04-05T07:38:17;60199.94;;;-140.67;89.93
2294;BME280;1155;42.644;23.264;2023-04-05T07:40:44;60185.59;;;-140.67;100.00
2294;BME280;1155;42.644;23.264;2023-04-05T07:43:11;60204.03;;;-140.67;88.15
2294;BME280;1155;42.644;23.264;2023-04-05T07:45:38;60187.66;;;-140.67;85.95
2294;BME280;1155;42.644;23.264;2023-04-05T07:48:06;60191.75;;;-140.67;95.53
2294;BME280;1155;42.644;23.264;2023-04-05T07:50:33;60206.09;;;-140.67;100.00
2294;BME280;1155;42.644;23.264;2023-04-05T07:53:00;60191.75;;;-140.67;100.00
2294;BME280;1155;42.644;23.264;2023-04-05T07:55:27;60197.91;;;-140.67;100.00
2294;BME280;1155;42.644;23.264;2023-04-05T07:57:54;60191.75;;;-140.67;100.00
2294;BME280;1155;42.644;23.264;2023-04-05T08:00:22;60183.56;;;-140.67;96.57
2294;BME280;1155;42.644;23.264;2023-04-05T08:02:49;60183.56;;;-140.67;94.82
2294;BME280;1155;42.644;23.264;2023-04-05T08:05:17;60214.28;;;-140.67;98.92
2294;BME280;1155;42.644;23.264;2023-04-05T08:07:44;60175.38;;;-140.67;92.49
2294;BME280;1155;42.644;23.264;2023-04-05T08:10:11;60191.75;;;-140.67;96.21
2294;BME280;1155;42.644;23.264;2023-04-05T08:12:38;60216.31;;;-140.67;93.97
2294;BME280;1155;42.644;23.264;2023-04-05T08:15:06;60195.84;;;-140.67;95.62
2294;BME280;1155;42.644;23.264;2023-04-05T08:17:33;60185.59;;;-140.67;92.00
2294;BME280;1155;42.644;23.264;2023-04-05T08:19:59;60191.75;;;-140.67;100.00
2294;BME280;1155;42.644;23.264;2023-04-05T08:22:28;60206.09;;;-140.67;100.00
2294;BME280;1155;42.644;23.264;2023-04-05T08:24:55;60183.56;;;-140.67;100.00
2294;BME280;1155;42.644;23.264;2023-04-05T08:27:21;60181.50;;;-140.67;100.00
2294;BME280;1155;42.644;23.264;2023-04-05T08:29:49;60212.22;;;-140.67;100.00
2294;BME280;1155;42.644;23.264;2023-04-05T08:32:15;60195.84;;;-140.67;100.00
2294;BME280;1155;42.644;23.264;2023-04-05T08:34:42;60218.38;;;-140.67;100.00
2294;BME280;1155;42.644;23.264;2023-04-05T08:37:09;60189.72;;;-140.67;100.00
2294;BME280;1155;42.644;23.264;2023-04-05T08:39:37;60181.50;;;-140.67;100.00
2294;BME280;1155;42.644;23.264;2023-04-05T08:42:10;60202.00;;;-140.67;100.00
2294;BME280;1155;42.644;23.264;2023-04-05T08:44:41;60226.56;;;-140.67;85.16
2294;BME280;1155;42.644;23.264;2023-04-05T08:47:10;60212.22;;;-140.67;96.94
2294;BME280;1155;42.644;23.264;2023-04-05T08:49:42;60187.66;;;-140.67;93.31
2294;BME280;1155;42.644;23.264;2023-04-05T08:52:09;60216.31;;;-140.67;98.85
2294;BME280;1155;42.644;23.264;2023-04-05T08:54:38;60216.31;;;-140.67;90.58
2294;BME280;1155;42.644;23.264;2023-04-05T08:57:06;60199.94;;;-140.67;95.61
2294;BME280;1155;42.644;23.264;2023-04-05T08:59:36;60181.50;;;-140.67;94.86
2294;BME280;1155;42.644;23.264;2023-04-05T09:02:11;60177.41;;;-140.67;93.05
2294;BME280;1155;42.644;23.264;2023-04-05T09:04:42;60210.19;;;-140.67;82.47
2294;BME280;1155;42.644;23.264;2023-04-05T09:07:12;60187.66;;;-140.67;82.39
2294;BME280;1155;42.644;23.264;2023-04-05T09:09:43;60183.56;;;-140.67;91.98
2294;BME280;1155;42.644;23.264;2023-04-05T09:12:12;60187.66;;;-140.67;82.08
2294;BME280;1155;42.644;23.264;2023-04-05T09:14:40;60204.03;;;-140.67;82.39
2294;BME280;1155;42.644;23.264;2023-04-05T09:17:07;60189.72;;;-140.67;94.27
2294;BME280;1155;42.644;23.264;2023-04-05T09:19:35;60212.22;;;-140.67;77.21
2294;BME280;1155;42.644;23.264;2023-04-05T09:22:03;60185.59;;;-140.67;82.52
2294;BME280;1155;42.644;23.264;2023-04-05T09:24:31;60193.81;;;-140.67;82.44
2294;BME280;1155;42.644;23.264;2023-04-05T09:27:07;60183.56;;;-140.67;81.23
2294;BME280;1155;42.644;23.264;2023-04-05T09:29:35;60210.19;;;-140.67;83.26
2294;BME280;1155;42.644;23.264;2023-04-05T09:32:02;60204.03;;;-140.67;72.83
2294;BME280;1155;42.644;23.264;2023-04-05T09:34:29;60195.84;;;-140.67;72.63
2294;BME280;1155;42.644;23.264;2023-04-05T09:36:57;60189.72;;;-140.67;78.70
2294;BME280;1155;42.644;23.264;2023-04-05T09:39:28;60185.59;;;-140.67;75.80
2294;BME280;1155;42.644;23.264;2023-04-05T09:42:04;60214.28;;;-140.67;88.25
2294;BME280;1155;42.644;23.264;2023-04-05T09:44:54;60199.94;;;-140.67;99.62
2294;BME280;1155;42.644;23.264;2023-04-05T09:47:23;60210.19;;;-140.67;100.00
2294;BME280;1155;42.644;23.264;2023-04-05T09:49:52;60177.41;;;-140.67;98.36
2294;BME280;1155;42.644;23.264;2023-04-05T09:52:22;60199.94;;;-140.67;90.98
2294;BME280;1155;42.644;23.264;2023-04-05T09:54:51;60195.84;;;-140.67;82.82
2294;BME280;1155;42.644;23.264;2023-04-05T09:57:18;60154.91;;;-140.67;75.88
2294;BME280;1155;42.644;23.264;2023-04-05T09:59:45;60199.94;;;-140.67;82.40
2294;BME280;1155;42.644;23.264;2023-04-05T10:02:14;60187.66;;;-140.67;86.03
2294;BME280;1155;42.644;23.264;2023-04-05T10:04:42;60191.75;;;-140.67;91.68
2294;BME280;1155;42.644;23.264;2023-04-05T10:07:10;60204.03;;;-140.67;86.64
2294;BME280;1155;42.644;23.264;2023-04-05T10:09:38;60183.56;;;-140.67;94.06
2294;BME280;1155;42.644;23.264;2023-04-05T10:12:06;60208.13;;;-140.67;99.05
2294;BME280;1155;42.644;23.264;2023-04-05T10:14:34;60189.72;;;-140.67;93.26
2294;BME280;1155;42.644;23.264;2023-04-05T10:17:10;60232.72;;;-140.67;98.28
2294;BME280;1155;42.644;23.264;2023-04-05T10:19:56;60220.41;;;-140.67;100.00
2294;BME280;1155;42.644;23.264;2023-04-05T10:22:28;60183.56;;;-140.67;100.00
2294;BME280;1155;42.644;23.264;2023-04-05T10:25:00;60210.19;;;-140.67;100.00
2294;BME280;1155;42.644;23.264;2023-04-05T10:27:35;60212.22;;;-140.67;100.00
2294;BME280;1155;42.644;23.264;2023-04-05T10:30:06;60216.31;;;-140.67;100.00
2294;BME280;1155;42.644;23.264;2023-04-05T10:33:00;60216.31;;;-140.67;100.00
2294;BME280;1155;42.644;23.264;2023-04-05T10:35:42;60181.50;;;-140.67;98.43
2294;BME280;1155;42.644;23.264;2023-04-05T10:38:20;60214.28;;;-140.67;98.81
2294;BME280;1155;42.644;23.264;2023-04-05T10:40:53;60191.75;;;-140.67;100.00
2294;BME280;1155;42.644;23.264;2023-04-05T10:43:24;60224.53;;;-140.67;100.00
2294;BME280;1155;42.644;23.264;2023-04-05T10:45:52;60210.19;;;-140.67;100.00
2294;BME280;1155;42.644;23.264;2023-04-05T10:48:27;60199.94;;;-140.67;100.00
2294;BME280;1155;42.644;23.264;2023-04-05T10:50:56;60212.22;;;-140.67;100.00
2294;BME280;1155;42.644;23.264;2023-04-05T10:53:24;60208.13;;;-140.67;100.00
2294;BME280;1155;42.644;23.264;2023-04-05T10:55:52;60216.31;;;-140.67;100.00
2294;BME280;1155;42.644;23.264;2023-04-05T10:58:21;60222.47;;;-140.67;100.00
2294;BME280;1155;42.644;23.264;2023-04-05T11:00:50;60202.00;;;-140.67;100.00
2294;BME280;1155;42.644;23.264;2023-04-05T11:03:46;60173.31;;;-140.67;100.00
2294;BME280;1155;42.644;23.264;2023-04-05T11:06:23;60204.03;;;-140.67;100.00
2294;BME280;1155;42.644;23.264;2023-04-05T11:08:53;60210.19;;;-140.67;100.00
2294;BME280;1155;42.644;23.264;2023-04-05T11:11:22;60191.75;;;-140.67;100.00
2294;BME280;1155;42.644;23.264;2023-04-05T11:13:52;60187.66;;;-140.67;100.00
2294;BME280;1155;42.644;23.264;2023-04-05T11:16:20;60199.94;;;-140.67;100.00
2294;BME280;1155;42.644;23.264;2023-04-05T11:18:48;60195.84;;;-140.67;100.00
2294;BME280;1155;42.644;23.264;2023-04-05T11:21:21;60187.66;;;-140.67;100.00
2294;BME280;1155;42.644;23.264;2023-04-05T11:24:05;60212.22;;;-140.67;100.00
2294;BME280;1155;42.644;23.264;2023-04-05T11:26:34;60206.09;;;-140.67;100.00
2294;BME280;1155;42.644;23.264;2023-04-05T11:29:19;60202.00;;;-140.67;100.00
2294;BME280;1155;42.644;23.264;2023-04-05T11:32:11;60193.81;;;-140.67;94.00
2294;BME280;1155;42.644;23.264;2023-04-05T11:34:40;60220.41;;;-140.67;100.00
2294;BME280;1155;42.644;23.264;2023-04-05T11:37:09;60202.00;;;-140.67;100.00
2294;BME280;1155;42.644;23.264;2023-04-05T11:39:37;60191.75;;;-140.67;100.00
2294;BME280;1155;42.644;23.264;2023-04-05T11:42:08;60171.28;;;-140.67;100.00
2294;BME280;1155;42.644;23.264;2023-04-05T11:44:41;60195.84;;;-140.67;100.00
2294;BME280;1155;42.644;23.264;2023-04-05T11:47:08;60171.28;;;-140.67;91.02
2294;BME280;1155;42.644;23.264;2023-04-05T11:49:36;60189.72;;;-140.67;86.62
2294;BME280;1155;42.644;23.264;2023-04-05T11:52:13;60208.13;;;-140.67;82.87
2294;BME280;1155;42.644;23.264;2023-04-05T11:54:40;60183.56;;;-140.67;84.14
2294;BME280;1155;42.644;23.264;2023-04-05T11:57:12;60208.13;;;-140.67;88.10
2294;BME280;1155;42.644;23.264;2023-04-05T11:59:41;60197.91;;;-140.67;90.52
2294;BME280;1155;42.644;23.264;2023-04-05T12:02:08;60187.66;;;-140.67;90.27
2294;BME280;1155;42.644;23.264;2023-04-05T12:04:35;60183.56;;;-140.67;88.98
2294;BME280;1155;42.644;23.264;2023-04-05T12:07:14;60161.03;;;-140.67;91.58
2294;BME280;1155;42.644;23.264;2023-04-05T12:10:03;60187.66;;;-140.67;80.87
2294;BME280;1155;42.644;23.264;2023-04-05T12:12:37;60208.13;;;-140.67;82.24
2294;BME280;1155;42.644;23.264;2023-04-05T12:15:06;60224.53;;;-140.67;82.64
2294;BME280;1155;42.644;23.264;2023-04-05T12:17:45;60204.03;;;-140.67;88.83
2294;BME280;1155;42.644;23.264;2023-04-05T12:20:15;60212.22;;;-140.67;80.67
2294;BME280;1155;42.644;23.264;2023-04-05T12:22:46;60171.28;;;-140.67;86.40
2294;BME280;1155;42.644;23.264;2023-04-05T12:25:14;60218.38;;;-140.67;91.97
2294;BME280;1155;42.644;23.264;2023-04-05T12:27:41;60195.84;;;-140.67;97.83
2294;BME280;1155;42.644;23.264;2023-04-05T12:30:11;60202.00;;;-140.67;92.31
2294;BME280;1155;42.644;23.264;2023-04-05T12:32:43;60183.56;;;-140.67;100.00
2294;BME280;1155;42.644;23.264;2023-04-05T12:35:12;60179.47;;;-140.67;100.00
2294;BME280;1155;42.644;23.264;2023-04-05T12:37:39;60193.81;;;-140.67;100.00
2294;BME280;1155;42.644;23.264;2023-04-05T12:40:09;60195.84;;;-140.67;100.00
2294;BME280;1155;42.644;23.264;2023-04-05T12:42:37;60208.13;;;-140.67;100.00
2294;BME280;1155;42.644;23.264;2023-04-05T12:45:06;60185.59;;;-140.67;100.00
2294;BME280;1155;42.644;23.264;2023-04-05T12:47:34;60199.94;;;-140.67;100.00
2294;BME280;1155;42.644;23.264;2023-04-05T12:50:14;60191.75;;;-140.67;100.00
2294;BME280;1155;42.644;23.264;2023-04-05T12:52:54;60204.03;;;-140.67;100.00
2294;BME280;1155;42.644;23.264;2023-04-05T12:55:23;60195.84;;;-140.67;100.00